»·PEaware :: N412CA KLGB-KOXR

N412CA :: KLGB-KOXR

FLIGHT INFORMATION

Flight Status: Arrived
Operator: Privately registered:
United States
More flights under this callsign
Pilot: Christian E. (23964)
Aircraft: Diamond DA-62
(DA62)
More flights by this aircraft type
Origin: KLGB Long Beach
United States
Destination: KOXR Oxnard
United States
More flights between these airports :: More routes between these airports
Route: SLI V23 POPPR SMO125 SMO VNY
File this flight plan on PilotEdge
Remarks: TEC ROUTE CSTP24
Altitude:
(Current/Filed)
4,000ft
Speed:
(Current/Filed)
140kts
Departed: 05-Feb-21 12:13 PM
Arrived: 05-Feb-21 12:42 PM
Distance/Time
Traveled:
58nm/0:29
Distance/Time
To Go:
Arrived

Flight Plot

Page will automatically refresh every two minutes.


Map Options




Map Legend


Flown Route
Filed Route
Departure Airport
Arrival Airport
Navaid (VOR, NDB)
Fix

Horizontal Profiles

Position Reports

Time Latitude Longitude Heading Altitude Ground
Speed
05-Feb-21 11:54 33.821142 -118.144256 269 40ft 0kts
05-Feb-21 11:55 33.821142 -118.144256 269 40ft 0kts
05-Feb-21 11:56 33.821142 -118.144257 270 40ft 0kts
05-Feb-21 11:57 33.821142 -118.144257 269 40ft 0kts
05-Feb-21 11:58 33.821142 -118.144257 269 40ft 0kts
05-Feb-21 11:59 33.821142 -118.144257 269 40ft 0kts
05-Feb-21 12:00 33.821142 -118.144257 269 40ft 0kts
05-Feb-21 12:01 33.821142 -118.144257 269 40ft 0kts
05-Feb-21 12:02 33.821142 -118.144257 269 40ft 0kts
05-Feb-21 12:03 33.821142 -118.144257 269 40ft 0kts
05-Feb-21 12:04 33.821142 -118.144257 269 40ft 0kts
05-Feb-21 12:05 33.821142 -118.144257 269 40ft 0kts
05-Feb-21 12:06 33.821790 -118.144406 63 41ft 4kts
05-Feb-21 12:07 33.821927 -118.144113 57 41ft 0kts
05-Feb-21 12:08 33.821927 -118.144113 57 41ft 0kts
05-Feb-21 12:09 33.821927 -118.144113 57 41ft 0kts
05-Feb-21 12:10 33.821927 -118.144113 57 41ft 0kts
05-Feb-21 12:11 33.822647 -118.143987 323 41ft 7kts
05-Feb-21 12:12 33.822495 -118.160333 269 353ft 101kts
05-Feb-21 12:13 33.825969 -118.194511 281 1434ft 108kts
05-Feb-21 12:14 33.832923 -118.229882 283 2521ft 109kts
05-Feb-21 12:15 33.840284 -118.266027 283 3596ft 112kts
05-Feb-21 12:16 33.858537 -118.301678 313 3978ft 150kts
05-Feb-21 12:17 33.888731 -118.338102 314 3973ft 155kts
05-Feb-21 12:18 33.919450 -118.375212 314 3972ft 156kts
05-Feb-21 12:19 33.954060 -118.406843 325 3972ft 157kts
05-Feb-21 12:20 33.990225 -118.436288 325 3972ft 157kts
05-Feb-21 12:21 34.027573 -118.463020 349 3974ft 157kts
05-Feb-21 12:22 34.071174 -118.469814 345 3968ft 158kts
05-Feb-21 12:23 34.103628 -118.504666 315 3989ft 156kts
05-Feb-21 12:24 34.132135 -118.543829 301 3995ft 156kts
05-Feb-21 12:25 34.146864 -118.592542 280 3993ft 155kts
05-Feb-21 12:26 34.154958 -118.643871 279 3993ft 153kts
05-Feb-21 12:27 34.162757 -118.693487 282 3992ft 149kts
05-Feb-21 12:28 34.171985 -118.741908 281 3996ft 147kts
05-Feb-21 12:29 34.181048 -118.790288 282 3996ft 147kts
05-Feb-21 12:30 34.190027 -118.838514 281 4016ft 147kts
05-Feb-21 12:31 34.198220 -118.887815 278 4009ft 149kts
05-Feb-21 12:32 34.197510 -118.938442 272 3829ft 129kts
05-Feb-21 12:33 34.198775 -118.981022 266 3258ft 116kts
05-Feb-21 12:34 34.198356 -119.017120 275 3222ft 97kts
05-Feb-21 12:35 34.199127 -119.050860 272 2687ft 99kts
05-Feb-21 12:36 34.200309 -119.083973 269 2138ft 100kts
05-Feb-21 12:37 34.200006 -119.116120 266 1569ft 84kts
05-Feb-21 12:38 34.200173 -119.145140 267 999ft 80kts
05-Feb-21 12:39 34.200497 -119.172080 271 562ft 79kts
05-Feb-21 12:40 34.200730 -119.198729 270 68ft 79kts
05-Feb-21 12:41 34.200068 -119.207095 160 41ft 0kts
05-Feb-21 12:42 34.199916 -119.207047 167 41ft 0kts
05-Feb-21 12:43 34.199821 -119.210072 270 39ft 14kts
05-Feb-21 12:44 34.199555 -119.214071 194 36ft 7kts
05-Feb-21 12:45 34.199439 -119.214268 1 36ft 0kts
05-Feb-21 12:46 34.199439 -119.214268 1 36ft 0kts
05-Feb-21 12:47 34.199439 -119.214268 1 36ft 0kts

Navigation Log

Ident Type
Flight plan parsing failed, navigation log unavailable